Time;durP1;ratioP1;P1;durP2;ratioP2;P2;SDS_P1;SDS_P2;PMS_P1;PMS_P2;Temp;Humidity;BMP_temperature;BMP_pressure;BME280_temperature;BME280_humidity;BME280_pressure;Samples;Min_cycle;Max_cycle;Signal;HPM_P1;HPM_P2
2022/08/17 00:01:05;;;;;;;;;22.25;21.50;;;;;21.23;64.63;100388.66;5063637;28;45576;-59
2022/08/17 00:03:33;;;;;;;;;22.25;18.75;;;;;21.22;64.80;100377.13;5067922;27;45263;-59
2022/08/17 00:06:10;;;;;;;;;24.25;21.50;;;;;21.22;64.78;100377.13;5062180;28;45391;-59
2022/08/17 00:08:48;;;;;;;;;22.75;21.25;;;;;21.22;64.52;100366.44;5061676;28;45956;-59
2022/08/17 00:11:19;;;;;;;;;21.25;17.75;;;;;21.23;64.55;100359.28;5060085;28;45370;-59
2022/08/17 00:13:48;;;;;;;;;20.50;18.00;;;;;21.24;64.82;100361.00;5061910;28;45350;-59
2022/08/17 00:16:21;;;;;;;;;20.00;19.50;;;;;21.23;64.66;100373.50;5061104;28;45425;-59
2022/08/17 00:18:47;;;;;;;;;19.00;18.50;;;;;21.21;65.00;100363.88;5061374;28;46567;-59
2022/08/17 00:21:15;;;;;;;;;18.75;18.25;;;;;21.18;65.01;100356.06;5061605;28;45368;-59
2022/08/17 00:23:41;;;;;;;;;20.75;18.75;;;;;21.21;64.46;100367.41;5061999;28;45320;-59
2022/08/17 00:26:08;;;;;;;;;22.00;18.50;;;;;21.20;64.85;100363.00;5061402;28;45217;-59
2022/08/17 00:28:33;;;;;;;;;20.00;18.25;;;;;21.20;64.77;100367.50;5061666;28;46426;-59
2022/08/17 00:30:59;;;;;;;;;18.50;18.50;;;;;21.18;64.99;100361.41;5060018;28;45275;-59
2022/08/17 00:33:28;;;;;;;;;17.25;16.75;;;;;21.17;64.89;100357.88;5068287;28;45544;-59
2022/08/17 00:35:55;;;;;;;;;21.25;18.75;;;;;21.18;64.71;100358.72;5081664;28;45255;-59
2022/08/17 00:38:22;;;;;;;;;19.50;14.75;;;;;21.18;64.46;100353.38;5081635;28;45671;-59
2022/08/17 00:40:54;;;;;;;;;19.75;18.75;;;;;21.18;65.12;100348.03;5081223;28;45275;-59
2022/08/17 00:43:45;;;;;;;;;17.50;15.00;;;;;21.18;64.46;100342.69;5081831;28;45461;-59
2022/08/17 00:46:23;;;;;;;;;17.00;15.75;;;;;21.18;64.41;100350.72;5081346;28;45402;-59
2022/08/17 00:48:49;;;;;;;;;16.00;15.50;;;;;21.15;64.83;100348.25;5081501;28;45324;-59
2022/08/17 00:52:05;;;;;;;;;13.75;13.75;;;;;21.18;64.50;100348.03;5072629;28;45631;-59
2022/08/17 00:54:34;;;;;;;;;15.00;13.25;;;;;21.17;64.82;100349.00;5073516;28;45479;-59
2022/08/17 00:57:05;;;;;;;;;20.50;17.25;;;;;21.04;64.86;100336.47;5081064;28;45258;-59
2022/08/17 00:59:37;;;;;;;;;20.00;15.50;;;;;21.16;64.71;100358.00;5081159;28;45346;-59
2022/08/17 01:02:05;;;;;;;;;15.00;15.00;;;;;21.14;64.42;100350.03;5078745;28;45274;-59
2022/08/17 01:04:32;;;;;;;;;17.75;14.50;;;;;21.13;64.41;100353.69;5061207;28;45244;-59
2022/08/17 01:07:00;;;;;;;;;14.00;12.00;;;;;21.13;64.97;100350.16;5060872;28;45531;-59
2022/08/17 01:09:26;;;;;;;;;17.00;15.50;;;;;21.09;64.68;100350.38;5060944;28;46263;-59
2022/08/17 01:11:51;;;;;;;;;19.00;18.00;;;;;21.09;65.09;100354.84;5060609;28;45335;-59
2022/08/17 01:14:19;;;;;;;;;15.75;14.50;;;;;21.09;64.89;100354.84;5061012;28;45299;-59
2022/08/17 01:16:46;;;;;;;;;19.50;16.50;;;;;21.08;64.69;100358.47;5060767;28;45652;-59
2022/08/17 01:19:22;;;;;;;;;16.00;15.75;;;;;21.05;64.89;100345.31;5060649;28;46844;-59
2022/08/17 01:22:15;;;;;;;;;20.75;18.25;;;;;21.07;65.03;100359.44;5060636;28;45268;-59
2022/08/17 01:24:43;;;;;;;;;13.50;12.50;;;;;21.05;64.95;100353.31;5060725;28;45297;-59
2022/08/17 01:27:10;;;;;;;;;15.00;13.25;;;;;21.05;65.16;100366.69;5060499;28;45181;-59
2022/08/17 01:29:38;;;;;;;;;19.50;16.00;;;;;21.03;64.35;100369.47;5057961;28;47526;-59
2022/08/17 01:32:06;;;;;;;;;15.00;14.50;;;;;21.03;65.00;100363.25;5060382;28;45338;-59
2022/08/17 01:34:32;;;;;;;;;17.25;16.00;;;;;21.00;64.58;100361.63;5059492;28;45272;-59
2022/08/17 01:36:58;;;;;;;;;18.25;17.00;;;;;20.99;64.77;100369.75;5060464;28;45500;-59
2022/08/17 01:39:34;;;;;;;;;18.75;16.75;;;;;20.96;64.90;100365.47;5060444;28;46459;-59
2022/08/17 01:42:05;;;;;;;;;16.50;15.50;;;;;20.98;64.85;100373.34;5060245;28;45248;-59
2022/08/17 01:44:30;;;;;;;;;16.00;13.25;;;;;20.96;64.28;100368.13;5060501;28;45281;-59
2022/08/17 01:46:55;;;;;;;;;14.75;13.50;;;;;20.94;64.83;100368.22;5060199;28;45315;-59
2022/08/17 01:49:21;;;;;;;;;16.75;16.75;;;;;20.94;64.80;100359.34;5060338;28;46298;-59
2022/08/17 01:51:47;;;;;;;;;19.25;17.25;;;;;20.91;65.04;100351.53;5071454;28;45283;-59
2022/08/17 01:54:16;;;;;;;;;16.75;15.00;;;;;20.89;64.87;100356.09;5061322;28;45344;-59
2022/08/17 01:56:44;;;;;;;;;19.50;17.00;;;;;20.91;65.02;100359.56;5071748;28;45438;-59
2022/08/17 01:59:11;;;;;;;;;17.25;16.25;;;;;20.89;64.83;100369.47;5079975;28;45626;-59
2022/08/17 02:01:37;;;;;;;;;16.75;14.25;;;;;20.88;64.70;100378.41;5080113;28;45253;-59
2022/08/17 02:04:05;;;;;;;;;16.00;14.00;;;;;20.85;64.31;100373.28;5061133;27;45359;-59
2022/08/17 02:06:33;;;;;;;;;19.50;17.25;;;;;20.83;65.00;100373.41;5060265;28;45429;-59
2022/08/17 02:08:59;;;;;;;;;17.00;17.00;;;;;20.81;64.85;100383.31;5059970;28;45408;-59
2022/08/17 02:11:24;;;;;;;;;19.50;17.50;;;;;20.81;64.34;100377.13;5059703;28;45268;-59
2022/08/17 02:13:50;;;;;;;;;20.25;19.00;;;;;20.78;64.50;100384.34;5060220;28;45702;-59
2022/08/17 02:16:17;;;;;;;;;19.00;16.75;;;;;20.76;64.66;100375.56;5060000;28;45232;-58
2022/08/17 02:18:43;;;;;;;;;18.50;18.50;;;;;20.74;64.39;100373.94;5059800;28;45319;-59
2022/08/17 02:21:09;;;;;;;;;16.75;15.50;;;;;20.72;64.58;100374.06;5058369;28;45321;-59
2022/08/17 02:23:39;;;;;;;;;19.00;15.75;;;;;20.70;64.85;100359.91;5060079;28;45266;-59
2022/08/17 02:26:06;;;;;;;;;19.75;19.00;;;;;20.68;64.59;100366.28;5059625;28;45441;-59
2022/08/17 02:28:31;;;;;;;;;22.50;17.25;;;;;20.65;65.08;100361.16;5059712;28;46516;-59
2022/08/17 02:31:03;;;;;;;;;18.25;16.00;;;;;20.63;65.11;100366.59;5059613;28;45223;-58
2022/08/17 02:33:31;;;;;;;;;22.00;20.50;;;;;20.60;65.23;100364.97;5060149;28;45486;-58
2022/08/17 02:35:56;;;;;;;;;21.75;20.25;;;;;20.58;64.94;100371.38;5059716;28;45417;-58
2022/08/17 02:38:22;;;;;;;;;18.25;17.00;;;;;20.56;65.16;100378.59;5059567;28;46109;-58
2022/08/17 02:40:47;;;;;;;;;16.75;16.75;;;;;20.47;65.19;100372.03;5061546;28;45334;-58
2022/08/17 02:43:13;;;;;;;;;15.00;14.25;;;;;20.54;64.57;100385.84;5063544;28;45240;-58
2022/08/17 02:45:38;;;;;;;;;18.75;18.50;;;;;20.51;64.84;100364.69;5061902;28;45305;-58
2022/08/17 02:48:04;;;;;;;;;17.75;17.25;;;;;20.48;65.03;100378.22;5063209;28;46238;-58
2022/08/17 02:50:29;;;;;;;;;16.00;16.00;;;;;20.48;64.66;100376.41;5062899;28;45345;-59
2022/08/17 02:52:55;;;;;;;;;17.50;16.50;;;;;20.47;64.93;100388.03;5062153;28;45437;-58
2022/08/17 02:55:23;;;;;;;;;15.75;15.00;;;;;20.45;65.09;100380.13;5076935;28;45535;-58
2022/08/17 02:57:49;;;;;;;;;19.75;16.50;;;;;20.45;64.57;100382.81;5082098;28;46219;-58
2022/08/17 03:00:32;;;;;;;;;22.50;20.75;;;;;20.42;64.64;100374.97;5082766;28;45327;-58
2022/08/17 03:02:59;;;;;;;;;16.50;16.00;;;;;20.46;64.80;100376.53;5073433;28;45276;-58
2022/08/17 03:05:28;;;;;;;;;19.50;17.50;;;;;20.44;64.79;100364.22;5062863;28;45391;-58
2022/08/17 03:07:54;;;;;;;;;18.00;17.00;;;;;20.47;64.65;100369.34;5062722;28;46016;-58
2022/08/17 03:10:21;;;;;;;;;18.50;18.50;;;;;20.46;64.82;100355.16;5062579;28;45326;-58
2022/08/17 03:12:47;;;;;;;;;19.50;17.25;;;;;20.47;65.22;100358.69;5062924;28;45306;-58
2022/08/17 03:15:12;;;;;;;;;29.25;22.75;;;;;20.51;65.16;100354.00;5062675;28;45320;-59
2022/08/17 03:17:37;;;;;;;;;23.50;20.00;;;;;20.51;65.21;100348.69;5062535;28;45321;-59
2022/08/17 03:20:05;;;;;;;;;19.00;17.00;;;;;20.50;65.30;100346.97;5062516;28;45409;-59
2022/08/17 03:22:35;;;;;;;;;18.00;18.00;;;;;20.54;64.48;100351.13;5061588;28;45319;-59
2022/08/17 03:25:02;;;;;;;;;19.75;18.00;;;;;20.52;64.89;100351.25;5060905;28;45336;-58
2022/08/17 03:27:27;;;;;;;;;21.25;19.00;;;;;20.55;64.70;100345.72;5062449;28;45264;-58
2022/08/17 03:29:53;;;;;;;;;19.50;18.25;;;;;20.54;65.24;100343.13;5062306;28;45564;-59
2022/08/17 03:32:19;;;;;;;;;19.00;18.00;;;;;20.58;64.70;100342.00;5062399;28;45394;-59
2022/08/17 03:34:45;;;;;;;;;21.50;20.00;;;;;20.59;65.12;100341.03;5062239;28;45619;-59
2022/08/17 03:37:11;;;;;;;;;19.50;18.75;;;;;20.60;65.28;100337.41;5062368;28;45855;-59
2022/08/17 03:39:37;;;;;;;;;21.00;18.75;;;;;20.60;65.21;100326.75;5062219;28;45494;-59
2022/08/17 03:42:08;;;;;;;;;18.50;17.50;;;;;20.61;64.89;100337.31;5062039;28;45158;-59
2022/08/17 03:44:34;;;;;;;;;19.75;18.75;;;;;20.59;65.04;100335.69;5062359;28;45376;-59
2022/08/17 03:57:55;;;;;;;;;25.00;20.00;;;;;20.62;65.40;100340.84;5082243;28;45228;-58
2022/08/17 04:00:21;;;;;;;;;20.25;19.25;;;;;20.61;65.06;100345.31;5082191;28;45425;-58
2022/08/17 04:02:46;;;;;;;;;19.50;19.50;;;;;20.63;65.51;100358.59;5073588;28;45330;-59
2022/08/17 04:05:13;;;;;;;;;17.00;16.00;;;;;20.67;64.79;100361.94;5061971;28;45322;-59
2022/08/17 04:07:39;;;;;;;;;21.00;19.75;;;;;20.60;65.11;100359.66;5060765;28;47965;-59
2022/08/17 04:10:05;;;;;;;;;22.25;19.00;;;;;20.64;65.27;100368.31;5061571;28;45541;-59
2022/08/17 04:12:42;;;;;;;;;21.75;21.50;;;;;20.67;64.80;100376.13;5062020;28;45416;-59
2022/08/17 04:15:08;;;;;;;;;19.75;14.00;;;;;20.63;64.72;100366.59;5061866;28;45348;-59
2022/08/17 04:17:33;;;;;;;;;22.50;17.25;;;;;20.68;64.97;100388.53;5061673;28;45188;-58
2022/08/17 04:19:58;;;;;;;;;17.50;16.25;;;;;20.69;65.40;100384.91;5061549;28;45240;-59
2022/08/17 04:22:24;;;;;;;;;18.75;17.75;;;;;20.72;65.14;100389.22;5061855;28;45284;-58
2022/08/17 04:24:49;;;;;;;;;21.50;20.50;;;;;20.72;65.10;100390.06;5061494;28;45463;-59
2022/08/17 04:27:14;;;;;;;;;19.00;19.00;;;;;20.73;64.97;100405.16;5061456;28;45285;-59
2022/08/17 04:29:40;;;;;;;;;29.25;25.00;;;;;20.75;65.21;100394.38;5073835;28;45302;-59
2022/08/17 04:32:05;;;;;;;;;24.00;21.25;;;;;20.76;65.11;100401.44;5061611;28;45235;-59
2022/08/17 04:34:32;;;;;;;;;23.50;21.00;;;;;20.77;65.08;100404.00;5061658;28;45459;-59
2022/08/17 04:36:57;;;;;;;;;22.25;22.00;;;;;20.78;64.81;100395.03;5061428;28;46333;-59
2022/08/17 04:39:24;;;;;;;;;23.00;22.00;;;;;20.79;64.84;100393.22;5061313;28;45292;-59
2022/08/17 04:42:05;;;;;;;;;23.75;21.75;;;;;20.81;65.07;100393.13;5061353;28;45296;-59
2022/08/17 04:44:31;;;;;;;;;25.75;23.75;;;;;20.76;64.99;100386.25;5061114;28;45358;-58
2022/08/17 04:46:56;;;;;;;;;27.50;20.25;;;;;20.79;64.96;100393.22;5061106;28;46544;-58
2022/08/17 04:49:21;;;;;;;;;21.50;18.00;;;;;20.82;65.44;100400.16;5061121;28;45354;-59
2022/08/17 04:51:47;;;;;;;;;21.25;19.25;;;;;20.83;64.79;100393.88;5072520;28;45318;-58
2022/08/17 04:54:16;;;;;;;;;18.50;15.50;;;;;20.82;65.41;100379.69;5081443;27;45636;-58
2022/08/17 04:56:42;;;;;;;;;20.75;19.50;;;;;20.83;65.12;100364.50;5081312;28;46008;-58
2022/08/17 04:59:14;;;;;;;;;23.00;23.00;;;;;20.83;64.86;100372.53;5060875;28;45219;-58
2022/08/17 05:01:41;;;;;;;;;21.25;21.25;;;;;20.83;64.82;100376.06;5066445;28;45446;-58
2022/08/17 05:04:12;;;;;;;;;21.00;18.50;;;;;20.81;65.18;100380.63;5060996;27;45435;-58
2022/08/17 05:06:37;;;;;;;;;26.75;21.25;;;;;20.80;65.46;100373.56;5060917;28;45319;-59
2022/08/17 05:09:03;;;;;;;;;23.75;22.00;;;;;20.81;64.79;100377.13;5060919;28;45640;-58
2022/08/17 05:11:30;;;;;;;;;23.25;22.25;;;;;20.80;64.87;100381.59;5060948;28;45237;-59
2022/08/17 05:13:57;;;;;;;;;22.25;21.50;;;;;20.78;65.05;100387.03;5060801;28;45345;-58
2022/08/17 05:16:25;;;;;;;;;24.25;21.50;;;;;20.77;65.32;100379.13;5060684;28;46130;-58
2022/08/17 05:18:51;;;;;;;;;21.00;20.00;;;;;20.74;64.86;100369.50;5060830;28;45626;-59
2022/08/17 05:21:17;;;;;;;;;28.25;25.00;;;;;20.75;64.87;100365.88;5060588;28;45361;-59
2022/08/17 05:23:44;;;;;;;;;21.50;20.75;;;;;20.71;65.24;100363.47;5060890;28;45567;-59
2022/08/17 05:26:13;;;;;;;;;24.75;22.75;;;;;20.74;65.18;100368.63;5060244;28;46219;-58
2022/08/17 05:28:38;;;;;;;;;25.75;21.00;;;;;20.73;64.55;100370.44;5059249;28;45427;-58
2022/08/17 05:31:04;;;;;;;;;24.50;23.00;;;;;20.73;65.05;100369.59;5060505;28;45247;-58
2022/08/17 05:33:35;;;;;;;;;26.25;26.25;;;;;20.71;64.78;100366.16;5059384;28;46040;-58
2022/08/17 05:36:03;;;;;;;;;25.25;23.00;;;;;20.72;65.14;100362.53;5060436;28;47420;-58
2022/08/17 05:38:29;;;;;;;;;23.25;21.50;;;;;20.69;65.15;100339.53;5060350;28;45368;-58
2022/08/17 05:40:56;;;;;;;;;24.25;22.00;;;;;20.71;64.64;100347.47;5060218;28;45277;-58
2022/08/17 05:43:33;;;;;;;;;26.50;22.00;;;;;20.68;65.08;100331.59;5060283;28;45587;-58
2022/08/17 05:46:14;;;;;;;;;23.75;21.75;;;;;20.70;64.66;100337.69;5072529;28;48639;-58
2022/08/17 05:48:43;;;;;;;;;24.50;20.50;;;;;20.69;65.16;100347.53;5060308;28;45311;-59
2022/08/17 05:51:36;;;;;;;;;22.00;20.00;;;;;20.68;65.18;100348.47;5064807;28;45361;-58
2022/08/17 05:54:29;;;;;;;;;22.25;21.25;;;;;20.69;64.79;100362.69;5064026;28;45482;-58
2022/08/17 05:57:45;;;;;;;;;19.00;18.75;;;;;20.67;65.12;100353.94;5059903;28;46359;-58
2022/08/17 06:00:22;;;;;;;;;26.00;22.25;;;;;20.65;65.17;100346.00;5025782;28;45398;-58
2022/08/17 06:03:11;;;;;;;;;27.50;25.00;;;;;20.68;64.69;100339.59;5068077;28;45476;-58
2022/08/17 06:06:04;;;;;;;;;22.75;21.50;;;;;20.67;65.06;100335.25;5060062;28;45245;-58
2022/08/17 06:08:29;;;;;;;;;21.25;20.50;;;;;20.69;64.93;100344.88;5059938;28;45565;-59
2022/08/17 06:11:28;;;;;;;;;22.00;22.00;;;;;20.72;65.05;100354.53;5059664;28;45343;-58
2022/08/17 06:14:12;;;;;;;;;23.50;22.25;;;;;20.73;65.16;100358.91;5059967;28;45469;-58
2022/08/17 06:16:45;;;;;;;;;27.00;25.75;;;;;20.75;64.84;100359.66;5059756;28;45245;-58
2022/08/17 06:19:16;;;;;;;;;22.25;21.75;;;;;20.77;64.94;100365.78;5059848;28;45335;-58
2022/08/17 06:21:46;;;;;;;;;23.00;22.50;;;;;20.80;64.97;100380.72;5059789;28;45555;-58
2022/08/17 06:24:17;;;;;;;;;23.00;20.50;;;;;20.80;65.50;100404.75;5060177;28;45221;-58
2022/08/17 06:26:44;;;;;;;;;20.00;19.50;;;;;20.79;65.17;100403.88;5059534;28;45323;-58
2022/08/17 06:29:36;;;;;;;;;21.25;19.50;;;;;20.77;64.99;100398.66;5058471;28;47001;-58
2022/08/17 06:32:02;;;;;;;;;20.25;19.75;;;;;20.77;65.13;100411.16;5059464;28;45374;-58
2022/08/17 06:34:28;;;;;;;;;24.25;23.25;;;;;20.79;65.45;100422.56;5059763;28;45343;-58
2022/08/17 06:37:02;;;;;;;;;18.75;17.75;;;;;20.80;65.03;100431.47;5059631;28;45314;-58
2022/08/17 06:40:06;;;;;;;;;22.00;19.75;;;;;20.81;65.30;100428.69;5059385;28;46386;-58
2022/08/17 06:42:53;;;;;;;;;21.50;19.50;;;;;20.81;65.36;100414.50;5059273;28;45457;-58
2022/08/17 06:45:35;;;;;;;;;24.00;21.75;;;;;20.80;64.88;100410.09;5059691;28;45337;-58
2022/08/17 06:48:14;;;;;;;;;24.25;20.50;;;;;20.82;65.12;100418.84;5059506;28;45517;-58
2022/08/17 06:50:48;;;;;;;;;23.00;23.00;;;;;20.82;65.45;100422.41;5060989;28;46178;-58
2022/08/17 06:53:26;;;;;;;;;23.25;21.75;;;;;20.84;64.73;100427.63;5079951;27;45355;-58
2022/08/17 06:55:54;;;;;;;;;24.00;23.00;;;;;20.84;65.31;100431.19;5079636;28;45220;-59
2022/08/17 06:58:22;;;;;;;;;25.75;25.75;;;;;20.84;65.33;100427.63;5066525;28;46125;-58
2022/08/17 07:00:50;;;;;;;;;22.50;21.00;;;;;20.84;65.03;100430.31;5077722;28;46030;-58
2022/08/17 07:03:36;;;;;;;;;22.50;20.75;;;;;20.84;64.74;100424.97;5059389;28;45281;-58
2022/08/17 07:06:19;;;;;;;;;23.50;22.50;;;;;20.83;64.94;100434.81;5067902;28;45224;-59
2022/08/17 07:09:22;;;;;;;;;25.00;21.50;;;;;20.84;64.76;100441.00;5079424;28;45328;-58
2022/08/17 07:12:28;;;;;;;;;26.25;22.50;;;;;20.83;65.50;100437.47;5030966;28;46318;-58
2022/08/17 07:15:09;;;;;;;;;22.25;20.50;;;;;20.84;65.33;100447.22;5031226;28;45368;-58
2022/08/17 07:17:34;;;;;;;;;21.00;21.00;;;;;20.83;65.20;100447.28;5056572;28;45336;-58
2022/08/17 07:20:07;;;;;;;;;27.25;24.00;;;;;20.84;64.76;100451.66;5059083;28;45324;-58
2022/08/17 07:22:57;;;;;;;;;24.00;21.00;;;;;20.85;64.91;100453.41;5058991;28;46464;-58
2022/08/17 07:25:23;;;;;;;;;22.25;20.75;;;;;20.86;65.22;100465.81;5057527;28;45522;-58
2022/08/17 07:27:51;;;;;;;;;22.50;21.00;;;;;20.86;65.32;100472.00;5062631;28;45495;-58
2022/08/17 07:30:18;;;;;;;;;23.50;21.75;;;;;20.86;65.44;100481.81;5062610;28;45544;-58
2022/08/17 07:32:53;;;;;;;;;21.75;20.25;;;;;20.86;65.23;100488.00;5062100;28;46191;-57
2022/08/17 07:35:27;;;;;;;;;23.75;21.00;;;;;20.87;64.98;100492.41;5062412;28;45185;-57
2022/08/17 07:38:32;;;;;;;;;27.25;23.25;;;;;20.86;65.15;100501.38;5074575;28;45315;-57
2022/08/17 07:41:02;;;;;;;;;22.50;16.50;;;;;20.85;65.07;100501.47;5062094;28;45430;-58
2022/08/17 07:43:40;;;;;;;;;26.00;21.00;;;;;20.86;65.46;100503.19;5062124;28;46226;-58
2022/08/17 07:49:06;;;;;;;;;23.00;22.50;;;;;20.86;65.54;100506.69;5062507;28;45237;-57
2022/08/17 07:51:42;;;;;;;;;22.25;20.25;;;;;20.86;64.91;100504.03;5071081;28;45449;-58
2022/08/17 07:54:18;;;;;;;;;24.25;19.50;;;;;20.89;64.82;100508.31;5082215;28;46913;-58
2022/08/17 07:56:51;;;;;;;;;19.50;19.00;;;;;20.89;65.23;100503.88;5082170;28;45377;-58
2022/08/17 07:59:22;;;;;;;;;24.25;23.00;;;;;20.90;64.87;100507.38;5082300;28;45351;-58
2022/08/17 08:01:53;;;;;;;;;21.00;19.50;;;;;20.89;65.29;100506.53;5074944;28;45441;-58
2022/08/17 08:04:33;;;;;;;;;22.00;21.00;;;;;20.91;65.44;100503.75;5062073;28;45295;-57
2022/08/17 08:07:01;;;;;;;;;10.25;10.25;;;;;20.89;65.16;100509.19;5061804;28;45245;-58
2022/08/17 08:09:29;;;;;;;;;19.25;17.75;;;;;20.91;64.93;100501.09;5062051;28;45284;-57
2022/08/17 08:11:54;;;;;;;;;21.00;18.25;;;;;20.94;65.12;100508.91;5061609;28;45338;-58
2022/08/17 08:14:31;;;;;;;;;20.75;18.75;;;;;20.94;65.33;100501.75;5061771;28;46012;-58
2022/08/17 08:17:00;;;;;;;;;19.25;17.25;;;;;20.94;64.93;100504.44;5075296;28;45337;-58
2022/08/17 08:19:28;;;;;;;;;23.50;21.25;;;;;20.97;64.93;100508.72;5061839;28;45322;-58
2022/08/17 08:22:06;;;;;;;;;21.50;20.50;;;;;21.01;64.74;100523.59;5061495;28;45541;-57
2022/08/17 08:24:54;;;;;;;;;21.00;19.75;;;;;21.03;65.31;100526.16;5061370;28;46231;-58
2022/08/17 08:27:29;;;;;;;;;20.50;20.50;;;;;21.05;65.40;100527.78;5061548;28;45271;-58
2022/08/17 08:30:09;;;;;;;;;17.75;17.75;;;;;21.08;65.09;100524.06;5061660;28;45245;-57
2022/08/17 08:33:13;;;;;;;;;20.00;18.25;;;;;21.10;65.15;100523.03;5061255;28;45320;-57
2022/08/17 08:35:48;;;;;;;;;20.25;20.25;;;;;21.14;64.90;100514.84;5061481;28;46138;-59
2022/08/17 08:38:36;;;;;;;;;19.50;17.75;;;;;21.17;65.21;100522.66;5068237;28;45394;-58
2022/08/17 08:41:28;;;;;;;;;20.00;18.00;;;;;21.19;65.17;100542.97;5081462;28;45444;-58
2022/08/17 08:44:32;;;;;;;;;22.75;21.00;;;;;21.23;64.93;100528.50;5081484;28;45416;-58
2022/08/17 08:47:09;;;;;;;;;22.25;20.25;;;;;21.26;64.64;100528.28;5031298;28;46498;-58
2022/08/17 08:49:58;;;;;;;;;21.25;20.25;;;;;21.31;65.27;100527.13;5061296;28;45396;-58
2022/08/17 08:52:42;;;;;;;;;19.25;18.00;;;;;21.34;65.24;100534.97;5077868;28;45186;-58
2022/08/17 08:55:07;;;;;;;;;24.00;21.50;;;;;21.37;64.64;100534.75;5081481;28;45187;-58
2022/08/17 08:57:39;;;;;;;;;21.50;20.50;;;;;21.40;65.09;100530.09;5081135;28;45255;-58
2022/08/17 09:00:18;;;;;;;;;25.75;22.75;;;;;21.41;64.58;100515.78;5080535;27;45380;-58
2022/08/17 09:03:21;;;;;;;;;28.00;24.00;;;;;21.47;64.99;100519.00;5073208;28;45391;-58
2022/08/17 09:06:06;;;;;;;;;21.25;20.50;;;;;21.50;64.76;100529.53;5061023;28;45347;-58
2022/08/17 09:08:53;;;;;;;;;27.00;22.25;;;;;21.53;64.56;100529.31;5059494;28;46316;-58
2022/08/17 09:11:21;;;;;;;;;22.00;20.25;;;;;21.54;64.72;100528.38;5060555;28;45402;-58
2022/08/17 09:13:52;;;;;;;;;24.50;21.25;;;;;21.56;64.65;100513.13;5060955;28;45469;-58
2022/08/17 09:16:28;;;;;;;;;27.75;21.75;;;;;21.56;64.83;100522.00;5068631;28;45292;-58
2022/08/17 09:19:03;;;;;;;;;23.00;19.00;;;;;21.57;63.99;100507.66;5060773;28;46154;-58
2022/08/17 09:21:45;;;;;;;;;22.00;20.00;;;;;21.56;64.38;100510.44;5060851;28;45251;-59
2022/08/17 09:24:19;;;;;;;;;24.00;21.00;;;;;21.50;64.37;100503.63;5060938;28;45360;-58
2022/08/17 09:27:07;;;;;;;;;22.00;20.75;;;;;21.57;64.60;100525.50;5060208;28;45430;-58
2022/08/17 09:29:39;;;;;;;;;23.75;22.00;;;;;21.57;64.44;100530.84;5060311;28;46321;-58
2022/08/17 09:32:30;;;;;;;;;24.00;22.50;;;;;21.54;64.61;100536.38;5064608;28;45449;-58
2022/08/17 09:35:02;;;;;;;;;26.25;24.00;;;;;21.55;64.00;100533.63;5060458;28;45189;-59
2022/08/17 09:37:52;;;;;;;;;29.00;26.00;;;;;21.57;64.17;100525.50;5060456;28;45190;-58
2022/08/17 09:40:30;;;;;;;;;21.75;19.75;;;;;21.59;64.58;100534.31;5069504;28;45512;-58
2022/08/17 09:43:08;;;;;;;;;18.75;17.25;;;;;21.56;64.58;100543.38;5080717;28;45471;-58
2022/08/17 09:46:02;;;;;;;;;40.00;34.50;;;;;21.61;64.69;100564.47;5080702;28;45185;-58
2022/08/17 09:48:35;;;;;;;;;21.50;20.00;;;;;21.61;64.06;100580.53;5078582;28;45587;-58
2022/08/17 09:51:07;;;;;;;;;24.50;21.50;;;;;21.61;64.45;100577.84;5073591;28;47081;-59
2022/08/17 09:53:35;;;;;;;;;22.50;21.50;;;;;21.63;64.63;100577.75;5068070;28;45658;-59
2022/08/17 09:56:07;;;;;;;;;22.50;22.50;;;;;21.64;64.51;100577.63;5059815;28;45286;-59
2022/08/17 09:59:08;;;;;;;;;19.50;19.25;;;;;21.65;64.19;100574.03;5059982;28;45551;-59
2022/08/17 10:01:50;;;;;;;;;27.25;24.25;;;;;21.64;64.36;100577.63;5071343;28;45538;-59
2022/08/17 10:04:31;;;;;;;;;24.75;21.00;;;;;21.66;64.63;100573.06;5065838;28;45449;-59
2022/08/17 10:07:05;;;;;;;;;24.75;24.75;;;;;21.66;64.01;100570.41;5064705;27;45360;-59
2022/08/17 10:09:40;;;;;;;;;20.00;20.00;;;;;21.68;64.64;100571.13;5068605;28;45194;-59
2022/08/17 10:12:23;;;;;;;;;26.75;24.75;;;;;21.71;63.85;100575.44;5062069;28;45313;-59
2022/08/17 10:15:12;;;;;;;;;25.00;24.50;;;;;21.71;64.06;100565.59;5060023;28;45282;-59
2022/08/17 10:18:07;;;;;;;;;26.50;26.25;;;;;21.78;63.84;100570.56;5051800;28;45338;-59
2022/08/17 10:20:45;;;;;;;;;22.25;21.50;;;;;21.80;64.20;100563.28;5067026;28;45367;-59
2022/08/17 10:26:14;;;;;;;;;28.75;28.75;;;;;21.85;63.46;100558.53;5079877;28;45228;-59
2022/08/17 10:29:00;;;;;;;;;25.00;23.00;;;;;21.87;63.75;100556.59;5080454;28;45308;-59
2022/08/17 10:31:46;;;;;;;;;28.25;26.75;;;;;21.87;63.33;100553.91;5079781;28;45366;-59
2022/08/17 10:34:49;;;;;;;;;28.00;26.25;;;;;21.88;63.85;100559.16;5079932;28;46261;-59
2022/08/17 10:37:20;;;;;;;;;23.00;23.00;;;;;21.89;63.76;100558.22;5069091;27;45330;-59
2022/08/17 10:40:23;;;;;;;;;30.25;26.00;;;;;21.92;63.81;100562.50;5059628;28;45220;-59
2022/08/17 10:43:17;;;;;;;;;25.25;23.00;;;;;21.93;63.43;100569.56;5042901;28;45565;-59
2022/08/17 10:45:50;;;;;;;;;27.25;25.75;;;;;21.94;63.58;100579.31;5059446;28;45185;-59
2022/08/17 10:48:28;;;;;;;;;27.75;25.25;;;;;21.95;63.79;100575.69;5059764;28;45433;-59
2022/08/17 10:51:32;;;;;;;;;27.75;26.25;;;;;22.00;63.17;100578.03;5063269;28;45266;-59
2022/08/17 10:54:00;;;;;;;;;24.25;24.25;;;;;22.00;63.67;100573.56;5079674;27;45469;-59
2022/08/17 10:56:46;;;;;;;;;33.00;29.75;;;;;22.07;63.28;100572.22;5079269;28;45875;-59
2022/08/17 10:59:34;;;;;;;;;31.50;28.50;;;;;22.15;63.46;100576.19;5077966;28;45477;-59
2022/08/17 11:02:24;;;;;;;;;27.75;27.75;;;;;22.23;63.08;100574.72;5080251;27;45376;-58
2022/08/17 11:04:59;;;;;;;;;32.50;28.50;;;;;22.33;63.63;100566.09;5062862;28;45504;-58
2022/08/17 11:07:38;;;;;;;;;29.50;28.50;;;;;22.42;63.16;100570.03;5076459;28;45296;-57
2022/08/17 11:10:19;;;;;;;;;28.25;27.00;;;;;22.52;63.61;100573.78;5062388;28;45373;-60
2022/08/17 11:13:00;;;;;;;;;30.25;28.50;;;;;22.62;63.05;100564.16;5062945;28;45252;-60
2022/08/17 11:15:55;;;;;;;;;37.25;32.50;;;;;22.79;62.92;100563.03;5062859;28;45450;-57
2022/08/17 11:18:31;;;;;;;;;29.75;28.50;;;;;22.94;63.41;100560.25;5061172;28;45467;-59
2022/08/17 11:21:08;;;;;;;;;28.00;24.00;;;;;23.12;63.36;100561.66;5062689;28;45482;-59
2022/08/17 11:23:52;;;;;;;;;32.50;30.00;;;;;23.29;63.55;100560.50;5062692;28;45302;-59
2022/08/17 11:26:24;;;;;;;;;29.50;27.50;;;;;23.48;63.11;100559.19;5062412;28;46244;-59
2022/08/17 11:28:53;;;;;;;;;28.25;28.25;;;;;23.69;62.63;100551.44;5062489;28;46301;-59
2022/08/17 11:31:36;;;;;;;;;30.75;27.75;;;;;23.94;63.08;100565.78;5062262;28;45158;-59
2022/08/17 11:34:12;;;;;;;;;31.50;29.75;;;;;24.28;63.61;100571.31;5062722;28;45250;-59
2022/08/17 11:37:03;;;;;;;;;34.50;29.75;;;;;24.78;64.34;100571.16;5062484;28;45450;-58
2022/08/17 11:39:52;;;;;;;;;28.25;27.00;;;;;25.40;64.50;100571.78;5061870;28;46383;-57
2022/08/17 11:42:35;;;;;;;;;32.50;28.75;;;;;26.06;64.18;100576.38;5062412;28;45373;-57
2022/08/17 11:45:31;;;;;;;;;32.00;29.50;;;;;26.60;63.80;100582.66;5070382;28;45346;-59
2022/08/17 11:53:52;;;;;;;;;30.00;27.75;;;;;28.02;61.95;100581.13;5082556;28;45350;-59
2022/08/17 11:56:37;;;;;;;;;29.25;28.25;;;;;28.46;61.99;100574.53;5072479;28;45253;-59
2022/08/17 11:59:43;;;;;;;;;23.00;23.00;;;;;28.91;61.58;100583.91;5079801;28;45762;-57
2022/08/17 12:02:29;;;;;;;;;24.75;24.25;;;;;29.45;61.59;100576.06;5078450;28;46128;-57
2022/08/17 12:05:13;;;;;;;;;31.75;27.00;;;;;29.95;61.47;100585.66;5061981;28;45313;-57